createdAt,value
2022-12-18T00:06:06.317Z,0
2022-12-18T00:12:29.779Z,0
2022-12-18T00:18:49.443Z,0
2022-12-18T00:25:12.370Z,0
2022-12-18T00:31:32.646Z,0
2022-12-18T00:37:58.778Z,0
2022-12-18T00:44:18.370Z,0
2022-12-18T00:50:41.362Z,0
2022-12-18T00:57:01.373Z,0
2022-12-18T01:03:24.410Z,0
2022-12-18T01:09:44.412Z,0
2022-12-18T01:16:07.473Z,0
2022-12-18T01:22:27.358Z,0
2022-12-18T01:28:50.353Z,0
2022-12-18T01:35:10.328Z,0
2022-12-18T01:41:33.413Z,0
2022-12-18T01:47:53.365Z,0
2022-12-18T01:54:16.378Z,0
2022-12-18T02:00:36.331Z,0
2022-12-18T02:06:59.358Z,0
2022-12-18T02:13:19.500Z,0
2022-12-18T02:19:42.453Z,0
2022-12-18T02:26:02.393Z,0
2022-12-18T02:32:25.494Z,0
2022-12-18T02:38:45.341Z,0
2022-12-18T02:45:08.422Z,0
2022-12-18T02:51:28.498Z,0
2022-12-18T02:57:51.367Z,0
2022-12-18T03:04:11.316Z,0
2022-12-18T03:10:34.496Z,0
2022-12-18T03:16:54.402Z,0
2022-12-18T03:23:17.354Z,0
2022-12-18T03:29:37.517Z,0
2022-12-18T03:36:00.420Z,0
2022-12-18T03:42:20.363Z,0
2022-12-18T03:48:43.491Z,0
2022-12-18T03:55:03.326Z,0
2022-12-18T04:01:26.452Z,0
2022-12-18T04:07:46.464Z,0
2022-12-18T04:31:46.388Z,0
2022-12-18T04:38:09.334Z,0
2022-12-18T04:44:29.362Z,0
2022-12-18T04:50:52.445Z,0
2022-12-18T04:57:12.382Z,0
2022-12-18T05:03:35.386Z,0
2022-12-18T05:09:55.468Z,0
2022-12-18T05:16:18.403Z,0
2022-12-18T05:22:38.340Z,0
2022-12-18T05:29:01.496Z,0
2022-12-18T05:35:21.416Z,0
2022-12-18T05:41:44.341Z,0
2022-12-18T05:48:04.460Z,0
2022-12-18T05:54:27.324Z,0
2022-12-18T06:00:47.427Z,0
2022-12-18T06:07:10.444Z,0
2022-12-18T06:13:30.381Z,0
2022-12-18T06:19:53.336Z,0
2022-12-18T06:26:13.463Z,0
2022-12-18T06:32:36.371Z,0
2022-12-18T06:38:56.379Z,0
2022-12-18T06:45:24.896Z,0
2022-12-18T06:51:39.515Z,0
2022-12-18T06:58:02.417Z,0
2022-12-18T07:04:22.438Z,2
2022-12-18T07:10:47.590Z,5
2022-12-18T07:17:05.403Z,10
2022-12-18T07:23:28.399Z,22
2022-12-18T07:29:48.436Z,38
2022-12-18T07:36:11.426Z,62
2022-12-18T07:42:31.414Z,91
2022-12-18T07:48:54.578Z,124
2022-12-18T07:55:14.437Z,164
2022-12-18T08:01:37.529Z,204
2022-12-18T08:07:57.489Z,254
2022-12-18T08:14:20.429Z,308
2022-12-18T08:20:40.331Z,368
2022-12-18T08:33:23.338Z,478
2022-12-18T08:39:46.530Z,499
2022-12-18T08:46:06.712Z,544
2022-12-18T08:52:29.599Z,587
2022-12-18T08:58:49.434Z,703
2022-12-18T09:05:12.455Z,829
2022-12-18T09:11:32.424Z,929
2022-12-18T09:17:55.335Z,890
2022-12-18T09:24:15.507Z,793
2022-12-18T09:30:38.635Z,824
2022-12-18T09:47:03.406Z,1295
2022-12-18T09:53:23.317Z,1192
2022-12-18T09:59:46.364Z,1328
2022-12-18T10:06:06.616Z,1260
2022-12-18T10:12:29.349Z,1289
2022-12-18T10:18:49.365Z,1308
2022-12-18T10:25:12.459Z,1410
2022-12-18T10:31:32.689Z,1629
2022-12-18T10:37:55.348Z,1588
2022-12-18T10:44:15.499Z,1559
2022-12-18T10:51:09.513Z,1642
2022-12-18T10:56:58.398Z,1726
2022-12-18T11:03:21.595Z,1591
2022-12-18T11:09:41.544Z,1686
2022-12-18T11:16:04.710Z,1756
2022-12-18T11:22:24.578Z,1674
2022-12-18T11:28:47.558Z,1494
2022-12-18T11:35:07.611Z,1477
2022-12-18T11:41:30.504Z,1426
2022-12-18T11:47:50.486Z,1348
2022-12-18T11:54:13.667Z,1399
2022-12-18T12:00:33.507Z,1217
2022-12-18T12:07:01.542Z,1067
2022-12-18T12:13:16.706Z,1017
2022-12-18T12:19:39.500Z,986
2022-12-18T12:25:59.540Z,981
2022-12-18T12:32:22.579Z,938
2022-12-18T12:38:45.682Z,913
2022-12-18T12:45:05.442Z,901
2022-12-18T12:51:25.599Z,868
2022-12-18T12:57:48.506Z,847
2022-12-18T13:04:08.654Z,833
2022-12-18T13:10:31.580Z,817
2022-12-18T13:16:51.435Z,868
2022-12-18T13:23:14.452Z,823
2022-12-18T13:29:34.557Z,764
2022-12-18T13:35:57.465Z,705
2022-12-18T13:42:17.473Z,656
2022-12-18T13:48:40.593Z,596
2022-12-18T13:55:00.540Z,533
2022-12-18T14:01:23.628Z,493
2022-12-18T14:07:43.750Z,480
2022-12-18T14:14:06.493Z,450
2022-12-18T14:20:26.373Z,393
2022-12-18T14:26:50.556Z,329
2022-12-18T14:33:09.473Z,267
2022-12-18T14:50:43.376Z,181
2022-12-18T14:57:03.344Z,136
2022-12-18T15:03:26.441Z,92
2022-12-18T15:09:46.493Z,60
2022-12-18T15:16:09.408Z,37
2022-12-18T15:22:29.374Z,24
2022-12-18T15:28:52.447Z,16
2022-12-18T15:35:12.339Z,9
2022-12-18T15:41:36.279Z,4
2022-12-18T15:47:55.460Z,2
2022-12-18T15:54:19.372Z,1
2022-12-18T16:00:39.356Z,0
2022-12-18T16:07:20.483Z,0
2022-12-18T16:13:22.344Z,0
2022-12-18T16:19:45.544Z,0
2022-12-18T16:26:05.491Z,0
2022-12-18T16:32:28.365Z,0
2022-12-18T16:38:48.427Z,0
2022-12-18T16:45:11.510Z,0
2022-12-18T16:51:31.451Z,0
2022-12-18T16:57:54.394Z,0
2022-12-18T17:04:14.517Z,0
2022-12-18T17:10:37.375Z,0
2022-12-18T17:17:20.168Z,0
2022-12-18T17:23:20.761Z,0
2022-12-18T17:29:46.717Z,0
2022-12-18T17:36:03.686Z,0
2022-12-18T17:42:23.502Z,0
2022-12-18T17:48:46.371Z,0
2022-12-18T17:55:06.348Z,0
2022-12-18T18:01:29.727Z,0
2022-12-18T18:07:49.471Z,0
2022-12-18T18:14:12.551Z,0
2022-12-18T18:20:32.628Z,0
2022-12-18T18:26:55.333Z,0
2022-12-18T18:33:15.341Z,0
2022-12-18T18:39:39.534Z,0
2022-12-18T18:45:59.519Z,0
2022-12-18T18:52:22.450Z,0
2022-12-18T18:58:42.481Z,0
2022-12-18T19:05:05.420Z,0
2022-12-18T19:11:25.437Z,0
2022-12-18T19:17:48.573Z,0
2022-12-18T19:24:09.126Z,0
2022-12-18T19:30:31.386Z,0
2022-12-18T19:36:55.316Z,0
2022-12-18T19:52:25.399Z,0
2022-12-18T19:58:45.720Z,0
2022-12-18T20:05:08.446Z,0
2022-12-18T20:11:28.494Z,0
2022-12-18T20:17:51.512Z,0
2022-12-18T20:24:11.369Z,0
2022-12-18T20:30:34.442Z,0
2022-12-18T20:36:54.361Z,0
2022-12-18T20:43:17.623Z,0
2022-12-18T20:49:37.731Z,0
2022-12-18T20:56:00.551Z,0
2022-12-18T21:02:20.637Z,0
2022-12-18T21:08:43.662Z,0
2022-12-18T21:15:03.460Z,0
2022-12-18T21:21:27.067Z,0
2022-12-18T21:27:46.487Z,0
2022-12-18T21:34:09.505Z,0
2022-12-18T21:40:29.316Z,0
2022-12-18T21:46:56.883Z,0
2022-12-18T21:53:12.340Z,0
2022-12-18T21:59:35.666Z,0
2022-12-18T22:06:07.581Z,0
2022-12-18T22:12:18.457Z,0
2022-12-18T22:18:38.485Z,0
2022-12-18T22:25:01.469Z,0
2022-12-18T22:31:21.437Z,0
2022-12-18T22:37:44.428Z,0
2022-12-18T22:44:04.471Z,0
2022-12-18T22:50:27.600Z,0
2022-12-18T22:56:47.349Z,0
2022-12-18T23:21:04.507Z,0
2022-12-18T23:27:24.324Z,0
2022-12-18T23:33:47.455Z,0
2022-12-18T23:40:07.542Z,0
2022-12-18T23:46:30.420Z,0
2022-12-18T23:52:50.626Z,0
2022-12-18T23:59:13.957Z,0
